Flight Track Log - Related Links

Times and Time Zones

All times are in EDT time to prevent confusion due to time zone crossing. See the N3425P flight status page for this flight to view local times or setup timezone preferences in your user account.

Time Position Orientation Groundspeed Altitude Reporting Facility
EDT Latitude Longitude Course Direction KTS MPH feet Rate Location/Type
Sun 04:29:26 PM 40.0781 -83.0606 47° Northeast 101 116 1,200  Level Indianapolis Center
Sun 04:30:33 PM 40.1014 -83.0278 47° Northeast 127 146 2,500 953 Climbing Indianapolis Center
Sun 04:31:13 PM 40.1203 -83.0106 35° Northeast 123 142 2,900 716 Climbing Indianapolis Center
Sun 04:31:40 PM 40.1367 -82.9992 28° Northeast 147 169 3,300 677 Climbing Indianapolis Center
Sun 04:32:15 PM 40.1550 -82.9800 39° Northeast 136 157 3,600 764 Climbing Indianapolis Center
Sun 04:32:35 PM 40.1681 -82.9700 30° Northeast 150 173 4,000 968 Climbing Indianapolis Center
Sun 04:33:17 PM 40.1869 -82.9472 43° Northeast 144 166 4,600 900 Climbing Indianapolis Center
Sun 04:33:35 PM 40.1853 -82.9311 98° East 129 148 4,900 774 Climbing Indianapolis Center
Sun 04:34:19 PM 40.1900 -82.8964 80° East 142 163 5,400 566 Climbing Indianapolis Center
Sun 04:35:21 PM 40.1944 -82.8397 84° East 149 171 5,900 484 Climbing Indianapolis Center
Sun 04:36:23 PM 40.2000 -82.7825 83° East 154 177 6,400 484 Climbing Indianapolis Center
Sun 04:37:25 PM 40.2056 -82.7228 83° East 160 184 6,900 480 Climbing Indianapolis Center
Sun 04:38:28 PM 40.2125 -82.6550 82° East 160 184 7,400 480 Climbing Indianapolis Center
Sun 04:39:30 PM 40.2183 -82.5969 82° East 159 183 7,900 532 Climbing Indianapolis Center
Sun 04:40:32 PM 40.2233 -82.5422 83° East 152 175 8,500 581 Climbing Indianapolis Center
Sun 04:41:34 PM 40.2289 -82.4908 82° East 143 165 9,100 532 Climbing Indianapolis Center
Sun 04:42:36 PM 40.2333 -82.4394 84° East 142 163 9,600 484 Climbing Indianapolis Center
Sun 04:43:38 PM 40.2386 -82.3856 83° East 148 170 10,100 484 Climbing Indianapolis Center
Sun 04:44:40 PM 40.2453 -82.3242 82° East 146 168 10,600 435 Climbing Indianapolis Center
Sun 04:45:42 PM 40.2503 -82.2700 83° East 148 170 11,000 194 Climbing Indianapolis Center
Sun 04:46:44 PM 40.2550 -82.2108 84° East 160 184 11,000  Level Indianapolis Center
Sun 04:47:46 PM 40.2603 -82.1494 84° East 166 191 11,000 48 Level Indianapolis Center
Sun 04:48:48 PM 40.2661 -82.0867 83° East 170 196 11,100 -194 Climbing Indianapolis Center
Sun 04:49:50 PM 40.2711 -82.0264 84° East 167 192 10,600 -484 Descending Indianapolis Center
Sun 04:50:52 PM 40.2778 -81.9533 83° East 194 223 10,100 -435 Descending Indianapolis Center
Sun 04:51:54 PM 40.2844 -81.8814 83° East 198 228 9,700 -484 Descending Indianapolis Center
Sun 04:52:56 PM 40.2922 -81.7975 83° East 198 228 9,100 -339 Descending Indianapolis Center
Sun 04:53:58 PM 40.2969 -81.7278 85° East 193 222 9,000 -97 Descending Indianapolis Center
Sun 04:55:00 PM 40.3033 -81.6631 83° East 182 209 8,900  Descending Indianapolis Center
Sun 04:56:02 PM 40.3089 -81.6036 83° East 169 194 9,000 47 Climbing Indianapolis Center
Sun 04:57:09 PM 40.3156 -81.5281 83° East 162 186 9,000  Level Cleveland Center
Sun 04:58:09 PM 40.3200 -81.4681 84° East 162 186 9,000  Level Cleveland Center
Sun 04:59:09 PM 40.3269 -81.4083 81° East 162 186 9,000  Level Cleveland Center
Sun 05:00:09 PM 40.3314 -81.3511 84° East 162 186 9,000  Level Cleveland Center
Sun 05:01:09 PM 40.3381 -81.2914 82° East 162 186 9,000  Level Cleveland Center
Sun 05:02:09 PM 40.3425 -81.2314 84° East 162 186 9,000  Level Cleveland Center
Sun 05:03:09 PM 40.3469 -81.1769 84° East 162 186 9,000  Level Cleveland Center
Sun 05:04:09 PM 40.3514 -81.1089 85° East 162 186 9,000  Level Cleveland Center
Sun 05:05:09 PM 40.3581 -81.0600 80° East 162 186 9,000  Level Cleveland Center
Sun 05:06:09 PM 40.3625 -80.9864 85° East 162 186 9,000  Level Cleveland Center
Sun 05:07:09 PM 40.3669 -80.9264 84° East 162 186 9,000  Level Cleveland Center
Sun 05:08:09 PM 40.3733 -80.8664 82° East 162 186 9,000  Level Cleveland Center
Sun 05:09:09 PM 40.3775 -80.8067 85° East 162 186 9,000  Level Cleveland Center
Sun 05:10:09 PM 40.3819 -80.7547 84° East 162 186 9,000  Level Cleveland Center
Sun 05:11:09 PM 40.3881 -80.6867 83° East 162 186 9,000  Level Cleveland Center
Sun 05:12:09 PM 40.3922 -80.6322 84° East 162 186 9,000  Level Cleveland Center
Sun 05:13:09 PM 40.3964 -80.5694 85° East 162 186 9,000  Level Cleveland Center
Sun 05:15:00 PM 40.4044 -80.4618 84° East  Level FlightAware Approximate
Sun 05:19:58 PM 40.4311 -80.1331 85° East 173 199 9,000  Level Cleveland Center
Sun 05:20:58 PM 40.4331 -80.0731 88° East 179 206 9,000  Level Cleveland Center
Sun 05:21:58 PM 40.4347 -80.0075 88° East 184 212 9,000  Level Cleveland Center
Sun 05:22:00 PM 40.4336 -80.0545 84° East  Level FlightAware Approximate
Sun 05:22:58 PM 40.4428 -79.9528 79° East 171 197 9,000  Level Cleveland Center
Sun 05:23:00 PM 40.4376 -79.9962 85° East  Level FlightAware Approximate
Sun 05:23:58 PM 40.4467 -79.8900 85° East 171 197 9,000  Level Cleveland Center
Sun 05:24:00 PM 40.4417 -79.9380 85° East  Level FlightAware Approximate
Sun 05:24:58 PM 40.4525 -79.8272 83° East 171 197 9,000  Level Cleveland Center
Sun 05:25:58 PM 40.4561 -79.7617 86° East 171 197 9,000  Level Cleveland Center
Sun 05:26:58 PM 40.4619 -79.6989 83° East 176 203 9,000 -50 Level Cleveland Center
Sun 05:27:58 PM 40.4656 -79.6333 86° East 176 203 8,900 -50 Descending Cleveland Center
Sun 05:28:58 PM 40.4692 -79.5678 86° East 176 203 8,900  Level Cleveland Center
Sun 05:29:58 PM 40.4747 -79.5050 83° East 176 203 8,900  Level Cleveland Center
Sun 05:30:58 PM 40.4783 -79.4394 86° East 176 203 8,900  Level Cleveland Center
Sun 05:31:58 PM 40.4839 -79.3764 83° East 176 203 8,900  Level Cleveland Center
Sun 05:32:58 PM 40.4875 -79.3136 86° East 176 203 8,900 100 Level Cleveland Center
Sun 05:33:58 PM 40.4908 -79.2481 86° East 176 203 9,100 100 Climbing Cleveland Center
Sun 05:34:58 PM 40.4944 -79.1881 85° East 176 203 9,100  Level Cleveland Center
Sun 05:35:58 PM 40.4997 -79.1250 84° East 176 203 9,100  Level Cleveland Center
Sun 05:36:58 PM 40.5031 -79.0622 86° East 176 203 9,100  Level Cleveland Center
Sun 05:37:58 PM 40.5064 -78.9992 86° East 176 203 9,100  Level Cleveland Center
Sun 05:38:58 PM 40.5119 -78.9364 83° East 176 203 9,100  Level Cleveland Center
Sun 05:39:58 PM 40.5150 -78.8761 86° East 176 203 9,100  Level Cleveland Center
Sun 05:40:58 PM 40.5183 -78.8161 86° East 171 197 9,100  Level Cleveland Center
Sun 05:41:58 PM 40.5236 -78.7531 84° East 171 197 9,100  Level Cleveland Center
Sun 05:42:58 PM 40.5267 -78.6900 86° East 171 197 9,100  Level Cleveland Center
Sun 05:43:58 PM 40.5297 -78.6217 87° East 166 191 9,100  Level Cleveland Center
Sun 05:44:58 PM 40.5350 -78.5586 84° East 166 191 9,100  Level Cleveland Center
Sun 05:45:58 PM 40.5381 -78.4958 86° East 166 191 9,100  Level Cleveland Center
Sun 05:46:58 PM 40.5408 -78.4328 87° East 166 191 9,100  Level Cleveland Center
Sun 05:47:58 PM 40.5461 -78.3725 83° East 166 191 9,100  Level Cleveland Center
Sun 05:49:05 PM 40.5483 -78.3075 87° East 162 186 9,100  Level New York Center
Sun 05:50:04 PM 40.5525 -78.2450 85° East 162 186 9,100 -100 Level New York Center
Sun 05:51:05 PM 40.5542 -78.1822 88° East 167 192 8,900 -99 Descending New York Center
Sun 05:52:05 PM 40.5600 -78.1228 83° East 167 192 8,900  Level New York Center
Sun 05:53:06 PM 40.5619 -78.0603 88° East 167 192 8,900 49 Level New York Center
Sun 05:54:07 PM 40.5656 -77.9978 86° East 167 192 9,000 50 Climbing New York Center
Sun 05:55:05 PM 40.5694 -77.9353 85° East 167 192 9,000 -50 Level New York Center
Sun 05:56:06 PM 40.5733 -77.8700 85° East 167 192 8,900 -50 Descending New York Center
Sun 05:57:04 PM 40.5772 -77.8075 85° East 167 192 8,900 51 Level New York Center
Sun 05:58:04 PM 40.5831 -77.7425 83° East 167 192 9,000 49 Climbing New York Center
Sun 05:59:06 PM 40.5867 -77.6800 86° East 172 198 9,000  Level New York Center
Sun 06:00:04 PM 40.5903 -77.6175 86° East 177 204 9,000  Level New York Center
Sun 06:01:04 PM 40.5944 -77.5467 86° East 177 204 9,000  Level New York Center
Sun 06:02:05 PM 40.5978 -77.4897 86° East 177 204 9,000 -50 Level New York Center
Sun 06:03:05 PM 40.6036 -77.4192 84° East 177 204 8,900 -50 Descending New York Center
Sun 06:04:04 PM 40.6069 -77.3622 86° East 177 204 8,900  Level New York Center
Sun 06:05:04 PM 40.6108 -77.2914 86° East 177 204 8,900  Level New York Center
Sun 06:06:05 PM 40.6158 -77.2372 83° East 177 204 8,900  Level New York Center
Sun 06:07:05 PM 40.6217 -77.1694 84° East 177 204 8,900  Level New York Center
Sun 06:08:06 PM 40.6247 -77.1122 86° East 177 204 8,900  Level New York Center
Sun 06:09:07 PM 40.6306 -77.0444 84° East 172 198 8,900  Level New York Center
Sun 06:10:04 PM 40.6336 -76.9872 86° East 172 198 8,900  Level New York Center
Sun 06:11:05 PM 40.6389 -76.9219 84° East 172 198 8,900  Level New York Center
Sun 06:12:06 PM 40.6419 -76.8647 86° East 172 198 8,900  Level New York Center
Sun 06:13:06 PM 40.6453 -76.7994 86° East 166 191 8,900  Level New York Center
Sun 06:14:06 PM 40.6506 -76.7369 84° East 166 191 8,900  Level New York Center
Sun 06:15:04 PM 40.6536 -76.6769 86° East 166 191 8,900  Level New York Center
Sun 06:16:04 PM 40.6586 -76.6172 84° East 161 185 8,900  Level New York Center
Sun 06:17:05 PM 40.6611 -76.5656 86° East 156 180 8,900  Level New York Center
Sun 06:18:07 PM 40.6644 -76.5000 86° East 156 180 8,900  Level New York Center
Sun 06:19:04 PM 40.6672 -76.4428 86° East 156 180 8,900  Level New York Center
Sun 06:20:05 PM 40.6739 -76.3886 81° East 156 180 8,900  Level New York Center
Sun 06:21:06 PM 40.6761 -76.3422 86° East 146 168 8,900  Level New York Center
Sun 06:22:06 PM 40.6786 -76.2878 87° East 146 168 8,900  Level New York Center
Sun 06:23:06 PM 40.6833 -76.2281 84° East 146 168 8,900  Level New York Center
Sun 06:24:04 PM 40.6839 -76.1706 89° East 146 168 8,900 -151 Level New York Center
Sun 06:25:05 PM 40.6908 -76.1108 81° East 151 174 8,600 -393 Descending New York Center
Sun 06:26:06 PM 40.6831 -76.0528 100° East 164 189 8,100 -504 Descending New York Center
Sun 06:27:04 PM 40.6817 -75.9897 92° East 169 194 7,600 -508 Descending New York Center
Sun 06:28:04 PM 40.6747 -75.9125 97° East 174 200 7,100 -248 Descending New York Center
Sun 06:29:05 PM 40.6708 -75.8575 95° East 179 206 7,100  Level New York Center
Sun 06:30:05 PM 40.6653 -75.7942 97° East 179 206 7,100  Level New York Center
Sun 06:31:06 PM 40.6617 -75.7283 94° East 174 200 7,100  Level New York Center
Sun 06:32:06 PM 40.6558 -75.6675 97° East 174 200 7,100  Level New York Center
Sun 06:33:04 PM 40.6519 -75.6125 95° East 168 193 7,100 -268 Level New York Center
Sun 06:35:00 PM 40.6931 -75.5092 62° Northeast  Level FlightAware Approximate
Sun 06:39:56 PM 40.6167 -75.1667 106° East 163 188 5,000  Level New York TRACON
Sun 06:40:56 PM 40.6167 -75.1167 90° East 164 189 5,000  Level New York TRACON
Sun 06:41:56 PM 40.6167 -75.0500 90° East 166 191 5,000  Level New York TRACON
Sun 06:42:00 PM 40.6427 -75.0969 105° East  Level FlightAware Approximate
Sun 06:42:56 PM 40.6000 -74.9833 108° East 162 186 5,000  Level New York TRACON
Sun 06:43:00 PM 40.6311 -75.0386 105° East  Level FlightAware Approximate
Sun 06:43:56 PM 40.6000 -74.9333 90° East 166 191 5,000  Level New York TRACON
Sun 06:44:00 PM 40.6194 -74.9803 105° East  Level FlightAware Approximate
Sun 06:45:00 PM 40.6072 -74.9222 106° East  Level FlightAware Approximate
Sun 06:45:02 PM 40.6000 -74.8667 90° East 166 191 5,000  Level New York TRACON
Sun 06:45:56 PM 40.5833 -74.8167 114° Southeast 172 198 4,700 -400 Descending New York TRACON
Sun 06:47:02 PM 40.5500 -74.7500 123° Southeast 181 208 4,200 -238 Descending New York TRACON
Sun 06:48:02 PM 40.5333 -74.7000 114° Southeast 172 198 4,200 -158 Level New York TRACON
Sun 06:48:56 PM 40.5167 -74.6333 108° East 173 199 3,900 -105 Descending New York TRACON
Sun 06:49:56 PM 40.4833 -74.5833 131° Southeast 164 189 4,000 50 Climbing New York TRACON
Sun 06:50:56 PM 40.4667 -74.5333 114° Southeast 166 191 4,000 -48 Level New York TRACON
Sun 06:52:02 PM 40.4500 -74.4833 114° Southeast 167 192 3,900  Descending New York TRACON
Sun 06:52:56 PM 40.4167 -74.4333 131° Southeast 166 191 4,000 53 Climbing New York TRACON
Sun 06:53:56 PM 40.4000 -74.3833 114° Southeast 163 188 4,000  Level New York TRACON
Sun 06:54:56 PM 40.3833 -74.3167 108° East 166 191 4,000  Level New York TRACON
Sun 06:55:56 PM 40.3667 -74.2667 114° Southeast 162 186 4,000  Level New York TRACON
Sun 06:56:56 PM 40.3667 -74.2167 90° East 170 196 4,000 250 Level New York TRACON
Sun 06:57:56 PM 40.3833 -74.1667 66° East 153 176 4,500 500 Climbing New York TRACON
Sun 06:58:56 PM 40.4000 -74.1167 66° East 151 174 5,000 250 Climbing New York TRACON
Sun 06:59:56 PM 40.4167 -74.0667 66° East 165 190 5,000  Level New York TRACON
Sun 07:00:56 PM 40.4500 -74.0167 49° Northeast 166 191 5,000  Level New York TRACON
Sun 07:01:56 PM 40.4833 -73.9833 37° Northeast 169 194 5,000  Level New York TRACON
Sun 07:02:56 PM 40.5333 -73.9500 27° Northeast 169 194 5,000  Level New York TRACON
Sun 07:03:56 PM 40.5667 -73.9333 21° North 170 196 5,000  Level New York TRACON
Sun 07:04:56 PM 40.6167 -73.9000 27° Northeast 174 200 5,000  Level New York TRACON
Sun 07:05:56 PM 40.6333 -73.8500 66° East 171 197 5,000  Level New York TRACON
Sun 07:06:56 PM 40.6667 -73.7833 57° Northeast 186 214 5,000 -150 Level New York TRACON
Sun 07:07:56 PM 40.6833 -73.7333 66° East 183 211 4,700 -400 Descending New York TRACON
Sun 07:08:56 PM 40.7167 -73.6833 49° Northeast 184 212 4,200 -526 Descending New York TRACON
Sun 07:09:50 PM 40.7333 -73.6167 72° East 180 207 3,700 -500 Descending New York TRACON
Sun 07:10:56 PM 40.7667 -73.5667 49° Northeast 179 206 3,200 -714 Descending New York TRACON
Sun 07:11:56 PM 40.7833 -73.5000 72° East 180 207 2,200 -650 Descending New York TRACON
Sun 07:12:56 PM 40.8000 -73.4500 66° East 165 190 1,900 -300 Descending New York TRACON

Login

Don't have an account? Register now (free) for customized features, flight alerts, and more!